sensor_id;sensor_type;location;lat;lon;timestamp;pressure;altitude;pressure_sealevel;temperature;humidity
5413;BME280;2729;50.056;8.678;2022-12-10T00:01:59;99302.28;;;2.94;100.00
5413;BME280;2729;50.056;8.678;2022-12-10T00:04:25;99313.66;;;2.68;100.00
5413;BME280;2729;50.056;8.678;2022-12-10T00:06:51;99317.31;;;2.40;100.00
5413;BME280;2729;50.056;8.678;2022-12-10T00:09:18;99312.94;;;2.51;100.00
5413;BME280;2729;50.056;8.678;2022-12-10T00:11:45;99312.00;;;2.58;100.00
5413;BME280;2729;50.056;8.678;2022-12-10T00:14:12;99314.69;;;2.46;100.00
5413;BME280;2729;50.056;8.678;2022-12-10T00:16:38;99312.06;;;2.53;100.00
5413;BME280;2729;50.056;8.678;2022-12-10T00:19:04;99316.38;;;2.50;100.00
5413;BME280;2729;50.056;8.678;2022-12-10T00:21:33;99316.38;;;2.50;100.00
5413;BME280;2729;50.056;8.678;2022-12-10T00:24:00;99317.09;;;2.69;100.00
5413;BME280;2729;50.056;8.678;2022-12-10T00:26:36;99312.84;;;2.65;100.00
5413;BME280;2729;50.056;8.678;2022-12-10T00:29:05;99318.66;;;2.86;100.00
5413;BME280;2729;50.056;8.678;2022-12-10T00:31:34;99318.84;;;2.65;100.00
5413;BME280;2729;50.056;8.678;2022-12-10T00:34:03;99322.25;;;2.69;100.00
5413;BME280;2729;50.056;8.678;2022-12-10T00:36:32;99323.06;;;2.75;100.00
5413;BME280;2729;50.056;8.678;2022-12-10T00:38:59;99316.84;;;2.98;100.00
5413;BME280;2729;50.056;8.678;2022-12-10T00:41:27;99317.97;;;2.66;100.00
5413;BME280;2729;50.056;8.678;2022-12-10T00:43:53;99312.78;;;2.72;100.00
5413;BME280;2729;50.056;8.678;2022-12-10T00:46:20;99318.84;;;2.65;100.00
5413;BME280;2729;50.056;8.678;2022-12-10T00:48:46;99324.81;;;2.70;100.00
5413;BME280;2729;50.056;8.678;2022-12-10T00:51:19;99314.28;;;2.95;100.00
5413;BME280;2729;50.056;8.678;2022-12-10T00:53:47;99312.81;;;2.69;100.00
5413;BME280;2729;50.056;8.678;2022-12-10T00:56:17;99316.94;;;2.85;100.00
5413;BME280;2729;50.056;8.678;2022-12-10T00:58:44;99317.88;;;2.77;100.00
5413;BME280;2729;50.056;8.678;2022-12-10T01:03:45;99307.03;;;2.38;100.00
5413;BME280;2729;50.056;8.678;2022-12-10T01:06:21;99318.16;;;2.40;100.00
5413;BME280;2729;50.056;8.678;2022-12-10T01:08:48;99320.72;;;2.42;100.00
5413;BME280;2729;50.056;8.678;2022-12-10T01:11:16;99313.63;;;2.74;100.00
5413;BME280;2729;50.056;8.678;2022-12-10T01:13:43;99325.66;;;2.74;100.00
5413;BME280;2729;50.056;8.678;2022-12-10T01:16:12;99314.56;;;2.66;100.00
5413;BME280;2729;50.056;8.678;2022-12-10T01:18:39;99321.28;;;2.82;100.00
5413;BME280;2729;50.056;8.678;2022-12-10T01:21:08;99328.25;;;2.69;100.00
5413;BME280;2729;50.056;8.678;2022-12-10T01:23:36;99322.00;;;2.98;100.00
5413;BME280;2729;50.056;8.678;2022-12-10T01:26:05;99334.16;;;2.82;100.00
5413;BME280;2729;50.056;8.678;2022-12-10T01:28:36;99332.59;;;2.63;100.00
5413;BME280;2729;50.056;8.678;2022-12-10T01:31:05;99335.06;;;2.78;100.00
5413;BME280;2729;50.056;8.678;2022-12-10T01:33:32;99345.34;;;2.79;100.00
5413;BME280;2729;50.056;8.678;2022-12-10T01:36:09;99337.75;;;2.59;100.00
5413;BME280;2729;50.056;8.678;2022-12-10T01:38:36;99344.66;;;2.53;100.00
5413;BME280;2729;50.056;8.678;2022-12-10T01:41:05;99349.72;;;2.71;100.00
5413;BME280;2729;50.056;8.678;2022-12-10T01:44:57;99344.63;;;2.62;100.00
5413;BME280;2729;50.056;8.678;2022-12-10T01:46:57;99352.44;;;2.45;100.00
5413;BME280;2729;50.056;8.678;2022-12-10T01:49:27;99357.50;;;2.62;100.00
5413;BME280;2729;50.056;8.678;2022-12-10T01:51:57;99351.50;;;2.57;100.00
5413;BME280;2729;50.056;8.678;2022-12-10T01:54:29;99345.50;;;2.56;100.00
5413;BME280;2729;50.056;8.678;2022-12-10T01:57:10;99361.91;;;2.45;100.00
5413;BME280;2729;50.056;8.678;2022-12-10T01:59:38;99363.53;;;2.55;100.00
5413;BME280;2729;50.056;8.678;2022-12-10T02:10:55;99357.47;;;2.65;100.00
5413;BME280;2729;50.056;8.678;2022-12-10T02:13:32;99355.09;;;2.35;100.00
5413;BME280;2729;50.056;8.678;2022-12-10T02:16:06;99361.00;;;2.52;100.00
5413;BME280;2729;50.056;8.678;2022-12-10T02:18:38;99349.88;;;2.44;100.00
5413;BME280;2729;50.056;8.678;2022-12-10T02:21:12;99357.63;;;2.41;100.00
5413;BME280;2729;50.056;8.678;2022-12-10T02:23:43;99353.41;;;2.32;100.00
5413;BME280;2729;50.056;8.678;2022-12-10T02:26:25;99350.00;;;2.29;100.00
5413;BME280;2729;50.056;8.678;2022-12-10T02:29:18;99349.13;;;2.28;100.00
5413;BME280;2729;50.056;8.678;2022-12-10T02:31:51;99344.84;;;2.29;100.00
5413;BME280;2729;50.056;8.678;2022-12-10T02:34:20;99345.56;;;2.49;100.00
5413;BME280;2729;50.056;8.678;2022-12-10T02:36:48;99346.69;;;2.08;100.00
5413;BME280;2729;50.056;8.678;2022-12-10T02:39:20;99354.13;;;2.51;100.00
5413;BME280;2729;50.056;8.678;2022-12-10T02:41:54;99350.81;;;2.32;100.00
5413;BME280;2729;50.056;8.678;2022-12-10T02:44:23;99350.94;;;2.17;100.00
5413;BME280;2729;50.056;8.678;2022-12-10T02:46:53;99350.06;;;2.19;100.00
5413;BME280;2729;50.056;8.678;2022-12-10T02:49:23;99356.91;;;2.20;100.00
5413;BME280;2729;50.056;8.678;2022-12-10T02:51:52;99355.25;;;2.12;100.00
5413;BME280;2729;50.056;8.678;2022-12-10T02:54:38;99356.84;;;2.30;100.00
5413;BME280;2729;50.056;8.678;2022-12-10T02:57:15;99357.81;;;2.10;100.00
5413;BME280;2729;50.056;8.678;2022-12-10T03:00:09;99356.84;;;2.30;100.00
5413;BME280;2729;50.056;8.678;2022-12-10T03:05:57;99361.28;;;2.06;100.00
5413;BME280;2729;50.056;8.678;2022-12-10T03:08:31;99354.44;;;2.05;100.00
5413;BME280;2729;50.056;8.678;2022-12-10T03:11:18;99355.19;;;2.19;100.00
5413;BME280;2729;50.056;8.678;2022-12-10T03:13:51;99358.63;;;2.21;100.00
5413;BME280;2729;50.056;8.678;2022-12-10T03:16:21;99349.22;;;2.14;100.00
5413;BME280;2729;50.056;8.678;2022-12-10T03:18:52;99354.34;;;2.17;100.00
5413;BME280;2729;50.056;8.678;2022-12-10T03:21:19;99356.91;;;2.20;100.00
5413;BME280;2729;50.056;8.678;2022-12-10T03:23:47;99347.63;;;1.93;100.00
5413;BME280;2729;50.056;8.678;2022-12-10T03:26:14;99344.19;;;1.94;100.00
5413;BME280;2729;50.056;8.678;2022-12-10T03:28:46;99344.94;;;2.12;100.00
5413;BME280;2729;50.056;8.678;2022-12-10T03:31:13;99349.34;;;1.93;100.00
5413;BME280;2729;50.056;8.678;2022-12-10T03:33:40;99334.81;;;1.87;100.00
5413;BME280;2729;50.056;8.678;2022-12-10T03:36:07;99335.72;;;1.77;100.00
5413;BME280;2729;50.056;8.678;2022-12-10T03:38:34;99344.19;;;1.93;100.00
5413;BME280;2729;50.056;8.678;2022-12-10T03:41:01;99339.94;;;1.86;100.00
5413;BME280;2729;50.056;8.678;2022-12-10T03:43:27;99332.19;;;1.93;100.00
5413;BME280;2729;50.056;8.678;2022-12-10T03:45:53;99343.47;;;1.68;100.00
5413;BME280;2729;50.056;8.678;2022-12-10T03:48:18;99346.88;;;1.72;100.00
5413;BME280;2729;50.056;8.678;2022-12-10T03:50:44;99344.22;;;1.88;100.00
5413;BME280;2729;50.056;8.678;2022-12-10T03:53:10;99343.41;;;1.83;100.00
5413;BME280;2729;50.056;8.678;2022-12-10T03:55:37;99349.44;;;1.73;100.00
5413;BME280;2729;50.056;8.678;2022-12-10T03:58:03;99346.91;;;1.64;100.00
5413;BME280;2729;50.056;8.678;2022-12-10T04:00:29;99352.94;;;1.60;100.00
5413;BME280;2729;50.056;8.678;2022-12-10T04:02:55;99352.97;;;1.43;100.00
5413;BME280;2729;50.056;8.678;2022-12-10T04:05:21;99359.84;;;1.44;100.00
5413;BME280;2729;50.056;8.678;2022-12-10T04:07:47;99349.59;;;1.31;100.00
5413;BME280;2729;50.056;8.678;2022-12-10T04:10:13;99363.31;;;1.29;100.00
5413;BME280;2729;50.056;8.678;2022-12-10T04:12:39;99365.88;;;1.28;100.00
5413;BME280;2729;50.056;8.678;2022-12-10T04:15:05;99371.06;;;1.07;100.00
5413;BME280;2729;50.056;8.678;2022-12-10T04:17:52;99365.06;;;1.08;100.00
5413;BME280;2729;50.056;8.678;2022-12-10T04:20:18;99369.31;;;1.18;100.00
5413;BME280;2729;50.056;8.678;2022-12-10T04:23:02;99366.75;;;1.15;100.00
5413;BME280;2729;50.056;8.678;2022-12-10T04:25:47;99364.19;;;1.15;100.00
5413;BME280;2729;50.056;8.678;2022-12-10T04:28:31;99362.50;;;0.95;100.00
5413;BME280;2729;50.056;8.678;2022-12-10T04:30:57;99366.78;;;1.01;100.00
5413;BME280;2729;50.056;8.678;2022-12-10T04:33:23;99366.78;;;1.07;100.00
5413;BME280;2729;50.056;8.678;2022-12-10T04:35:49;99364.22;;;1.06;100.00
5413;BME280;2729;50.056;8.678;2022-12-10T04:38:15;99358.25;;;0.87;100.00
5413;BME280;2729;50.056;8.678;2022-12-10T04:40:41;99359.97;;;0.76;100.00
5413;BME280;2729;50.056;8.678;2022-12-10T04:43:07;99362.53;;;0.77;100.00
5413;BME280;2729;50.056;8.678;2022-12-10T04:45:34;99356.53;;;0.74;100.00
5413;BME280;2729;50.056;8.678;2022-12-10T04:48:00;99357.38;;;0.92;100.00
5413;BME280;2729;50.056;8.678;2022-12-10T04:50:26;99359.97;;;0.83;100.00
5413;BME280;2729;50.056;8.678;2022-12-10T04:52:52;99358.25;;;0.69;100.00
5413;BME280;2729;50.056;8.678;2022-12-10T04:55:18;99359.09;;;0.75;100.00
5413;BME280;2729;50.056;8.678;2022-12-10T04:57:43;99358.25;;;0.64;100.00
5413;BME280;2729;50.056;8.678;2022-12-10T05:00:10;99359.97;;;0.71;100.00
5413;BME280;2729;50.056;8.678;2022-12-10T05:02:36;99359.09;;;0.66;100.00
5413;BME280;2729;50.056;8.678;2022-12-10T05:05:02;99364.25;;;0.72;100.00
5413;BME280;2729;50.056;8.678;2022-12-10T05:07:28;99355.69;;;0.76;100.00
5413;BME280;2729;50.056;8.678;2022-12-10T05:09:54;99368.53;;;0.76;100.00
5413;BME280;2729;50.056;8.678;2022-12-10T05:12:20;99366.81;;;0.80;100.00
5413;BME280;2729;50.056;8.678;2022-12-10T05:14:46;99371.94;;;0.74;100.00
5413;BME280;2729;50.056;8.678;2022-12-10T05:17:12;99370.22;;;0.73;100.00
5413;BME280;2729;50.056;8.678;2022-12-10T05:19:38;99375.38;;;0.77;100.00
5413;BME280;2729;50.056;8.678;2022-12-10T05:22:04;99370.22;;;0.74;100.00
5413;BME280;2729;50.056;8.678;2022-12-10T05:24:48;99376.22;;;0.72;100.00
5413;BME280;2729;50.056;8.678;2022-12-10T05:27:14;99375.38;;;0.74;100.00
5413;BME280;2729;50.056;8.678;2022-12-10T05:29:40;99383.94;;;0.79;100.00
5413;BME280;2729;50.056;8.678;2022-12-10T05:32:06;99376.22;;;0.81;100.00
5413;BME280;2729;50.056;8.678;2022-12-10T05:34:32;99384.78;;;0.72;100.00
5413;BME280;2729;50.056;8.678;2022-12-10T05:36:58;99385.63;;;0.74;100.00
5413;BME280;2729;50.056;8.678;2022-12-10T05:39:24;99386.50;;;0.73;100.00
5413;BME280;2729;50.056;8.678;2022-12-10T05:41:50;99389.06;;;0.67;100.00
5413;BME280;2729;50.056;8.678;2022-12-10T05:44:16;99392.47;;;0.63;100.00
5413;BME280;2729;50.056;8.678;2022-12-10T05:46:42;99390.75;;;0.62;100.00
5413;BME280;2729;50.056;8.678;2022-12-10T05:49:08;99390.78;;;0.65;100.00
5413;BME280;2729;50.056;8.678;2022-12-10T05:51:36;99390.78;;;0.63;100.00
5413;BME280;2729;50.056;8.678;2022-12-10T05:54:04;99392.47;;;0.57;100.00
5413;BME280;2729;50.056;8.678;2022-12-10T05:56:31;99398.47;;;0.50;100.00
5413;BME280;2729;50.056;8.678;2022-12-10T05:59:00;99404.44;;;0.52;100.00
5413;BME280;2729;50.056;8.678;2022-12-10T06:01:29;99402.72;;;0.48;100.00
5413;BME280;2729;50.056;8.678;2022-12-10T06:03:57;99402.75;;;0.57;100.00
5413;BME280;2729;50.056;8.678;2022-12-10T06:06:35;99406.16;;;0.57;100.00
5413;BME280;2729;50.056;8.678;2022-12-10T06:09:02;99406.16;;;0.59;100.00
5413;BME280;2729;50.056;8.678;2022-12-10T06:11:28;99402.75;;;0.63;100.00
5413;BME280;2729;50.056;8.678;2022-12-10T06:13:55;99411.31;;;0.70;100.00
5413;BME280;2729;50.056;8.678;2022-12-10T06:16:22;99410.44;;;0.60;100.00
5413;BME280;2729;50.056;8.678;2022-12-10T06:18:48;99413.88;;;0.59;100.00
5413;BME280;2729;50.056;8.678;2022-12-10T06:21:16;99410.44;;;0.64;100.00
5413;BME280;2729;50.056;8.678;2022-12-10T06:23:42;99417.31;;;0.67;100.00
5413;BME280;2729;50.056;8.678;2022-12-10T06:26:12;99419.88;;;0.75;100.00
5413;BME280;2729;50.056;8.678;2022-12-10T06:28:38;99417.31;;;0.82;100.00
5413;BME280;2729;50.056;8.678;2022-12-10T06:31:05;99424.16;;;0.85;100.00
5413;BME280;2729;50.056;8.678;2022-12-10T06:33:31;99425.88;;;0.96;100.00
5413;BME280;2729;50.056;8.678;2022-12-10T06:35:57;99431.00;;;0.78;100.00
5413;BME280;2729;50.056;8.678;2022-12-10T06:38:24;99432.72;;;0.73;100.00
5413;BME280;2729;50.056;8.678;2022-12-10T06:40:51;99436.13;;;0.78;100.00
5413;BME280;2729;50.056;8.678;2022-12-10T06:43:18;99443.00;;;0.84;100.00
5413;BME280;2729;50.056;8.678;2022-12-10T06:45:45;99437.84;;;0.90;100.00
5413;BME280;2729;50.056;8.678;2022-12-10T06:48:11;99445.56;;;0.91;100.00
5413;BME280;2729;50.056;8.678;2022-12-10T06:50:37;99449.84;;;0.85;100.00
5413;BME280;2729;50.056;8.678;2022-12-10T06:53:03;99443.84;;;0.86;100.00
5413;BME280;2729;50.056;8.678;2022-12-10T06:55:30;99449.84;;;0.95;100.00
5413;BME280;2729;50.056;8.678;2022-12-10T06:57:57;99451.56;;;0.87;100.00
5413;BME280;2729;50.056;8.678;2022-12-10T07:00:23;99449.00;;;1.06;100.00
5413;BME280;2729;50.056;8.678;2022-12-10T07:02:49;99452.41;;;1.02;100.00
5413;BME280;2729;50.056;8.678;2022-12-10T07:05:15;99462.69;;;1.09;100.00
5413;BME280;2729;50.056;8.678;2022-12-10T07:07:41;99460.97;;;1.19;100.00
5413;BME280;2729;50.056;8.678;2022-12-10T07:10:08;99458.41;;;1.29;100.00
5413;BME280;2729;50.056;8.678;2022-12-10T07:12:34;99469.53;;;1.28;100.00
5413;BME280;2729;50.056;8.678;2022-12-10T07:15:00;99464.38;;;1.35;100.00
5413;BME280;2729;50.056;8.678;2022-12-10T07:17:26;99465.25;;;1.34;100.00
5413;BME280;2729;50.056;8.678;2022-12-10T07:19:53;99463.53;;;1.31;100.00
5413;BME280;2729;50.056;8.678;2022-12-10T07:22:19;99467.81;;;1.37;100.00
5413;BME280;2729;50.056;8.678;2022-12-10T07:24:44;99470.41;;;1.29;100.00
5413;BME280;2729;50.056;8.678;2022-12-10T07:27:10;99471.25;;;1.40;100.00
5413;BME280;2729;50.056;8.678;2022-12-10T07:29:36;99472.97;;;1.18;100.00
5413;BME280;2729;50.056;8.678;2022-12-10T07:32:02;99478.97;;;1.13;100.00
5413;BME280;2729;50.056;8.678;2022-12-10T07:34:28;99487.53;;;1.19;100.00
5413;BME280;2729;50.056;8.678;2022-12-10T07:36:54;99484.97;;;1.33;100.00
5413;BME280;2729;50.056;8.678;2022-12-10T07:39:20;99484.09;;;1.26;100.00
5413;BME280;2729;50.056;8.678;2022-12-10T07:41:48;99484.94;;;1.39;100.00
5413;BME280;2729;50.056;8.678;2022-12-10T07:44:18;99480.66;;;1.47;100.00
5413;BME280;2729;50.056;8.678;2022-12-10T07:46:45;99491.78;;;1.60;100.00
5413;BME280;2729;50.056;8.678;2022-12-10T07:49:11;99483.19;;;1.69;100.00
5413;BME280;2729;50.056;8.678;2022-12-10T07:51:37;99484.91;;;1.64;100.00
5413;BME280;2729;50.056;8.678;2022-12-10T07:54:03;99480.63;;;1.72;100.00
5413;BME280;2729;50.056;8.678;2022-12-10T07:56:29;99482.34;;;1.62;100.00
5413;BME280;2729;50.056;8.678;2022-12-10T07:58:55;99490.06;;;1.57;100.00
5413;BME280;2729;50.056;8.678;2022-12-10T08:01:25;99489.19;;;1.77;100.00
5413;BME280;2729;50.056;8.678;2022-12-10T08:03:53;99493.44;;;1.85;100.00
5413;BME280;2729;50.056;8.678;2022-12-10T08:06:20;99496.03;;;1.84;100.00
5413;BME280;2729;50.056;8.678;2022-12-10T08:08:47;99488.34;;;1.69;100.00
5413;BME280;2729;50.056;8.678;2022-12-10T08:11:15;99494.28;;;1.86;100.00
5413;BME280;2729;50.056;8.678;2022-12-10T08:13:42;99493.41;;;1.94;100.00
5413;BME280;2729;50.056;8.678;2022-12-10T08:16:11;99502.88;;;1.85;100.00
5413;BME280;2729;50.056;8.678;2022-12-10T08:18:37;99498.56;;;1.94;100.00
5413;BME280;2729;50.056;8.678;2022-12-10T08:21:11;99499.38;;;2.12;100.00
5413;BME280;2729;50.056;8.678;2022-12-10T08:23:38;99501.94;;;2.13;100.00
5413;BME280;2729;50.056;8.678;2022-12-10T08:26:05;99501.06;;;2.17;100.00
5413;BME280;2729;50.056;8.678;2022-12-10T08:28:33;99504.56;;;1.98;100.00
5413;BME280;2729;50.056;8.678;2022-12-10T08:30:59;99503.66;;;2.10;100.00
5413;BME280;2729;50.056;8.678;2022-12-10T08:33:25;99505.28;;;2.37;100.00
5413;BME280;2729;50.056;8.678;2022-12-10T08:35:51;99513.94;;;2.10;100.00
5413;BME280;2729;50.056;8.678;2022-12-10T08:38:17;99513.88;;;2.34;100.00
5413;BME280;2729;50.056;8.678;2022-12-10T08:40:43;99515.63;;;2.23;100.00
5413;BME280;2729;50.056;8.678;2022-12-10T08:43:09;99513.91;;;2.19;100.00
5413;BME280;2729;50.056;8.678;2022-12-10T08:45:35;99517.34;;;2.24;100.00
5413;BME280;2729;50.056;8.678;2022-12-10T08:48:02;99520.66;;;2.47;100.00
5413;BME280;2729;50.056;8.678;2022-12-10T08:50:28;99519.78;;;2.62;100.00
5413;BME280;2729;50.056;8.678;2022-12-10T08:52:54;99524.13;;;2.39;100.00
5413;BME280;2729;50.056;8.678;2022-12-10T08:55:20;99528.38;;;2.52;100.00
5413;BME280;2729;50.056;8.678;2022-12-10T08:57:46;99530.09;;;2.50;100.00
5413;BME280;2729;50.056;8.678;2022-12-10T09:00:12;99527.47;;;2.65;100.00
5413;BME280;2729;50.056;8.678;2022-12-10T09:02:39;99531.78;;;2.63;100.00
5413;BME280;2729;50.056;8.678;2022-12-10T09:05:06;99535.22;;;2.64;100.00
5413;BME280;2729;50.056;8.678;2022-12-10T09:07:32;99531.72;;;2.74;100.00
5413;BME280;2729;50.056;8.678;2022-12-10T09:09:58;99529.94;;;2.88;100.00
5413;BME280;2729;50.056;8.678;2022-12-10T09:12:24;99532.66;;;2.61;100.00
5413;BME280;2729;50.056;8.678;2022-12-10T09:14:50;99535.00;;;3.00;100.00
5413;BME280;2729;50.056;8.678;2022-12-10T09:17:16;99539.44;;;2.77;100.00
5413;BME280;2729;50.056;8.678;2022-12-10T09:19:42;99543.75;;;2.76;100.00
5413;BME280;2729;50.056;8.678;2022-12-10T09:22:08;99540.19;;;2.96;100.00
5413;BME280;2729;50.056;8.678;2022-12-10T09:24:34;99544.34;;;3.16;100.00
5413;BME280;2729;50.056;8.678;2022-12-10T09:27:01;99548.72;;;3.08;100.00
5413;BME280;2729;50.056;8.678;2022-12-10T09:29:27;99542.66;;;3.15;100.00
5413;BME280;2729;50.056;8.678;2022-12-10T09:31:54;99542.50;;;3.35;100.00
5413;BME280;2729;50.056;8.678;2022-12-10T09:34:20;99541.63;;;3.36;100.00
5413;BME280;2729;50.056;8.678;2022-12-10T09:36:47;99539.09;;;3.30;100.00
5413;BME280;2729;50.056;8.678;2022-12-10T09:39:14;99545.00;;;3.44;100.00
5413;BME280;2729;50.056;8.678;2022-12-10T09:47:08;99537.78;;;3.81;100.00
5413;BME280;2729;50.056;8.678;2022-12-10T09:50:02;99543.09;;;3.68;100.00
5413;BME280;2729;50.056;8.678;2022-12-10T09:52:35;99536.91;;;3.84;100.00
5413;BME280;2729;50.056;8.678;2022-12-10T09:55:12;99539.59;;;3.72;100.00
5413;BME280;2729;50.056;8.678;2022-12-10T09:57:45;99529.56;;;3.41;100.00
5413;BME280;2729;50.056;8.678;2022-12-10T10:00:35;99538.78;;;3.67;100.00
5413;BME280;2729;50.056;8.678;2022-12-10T10:03:02;99547.53;;;3.52;100.00
5413;BME280;2729;50.056;8.678;2022-12-10T10:05:38;99539.00;;;3.44;100.00
5413;BME280;2729;50.056;8.678;2022-12-10T10:08:12;99532.72;;;3.71;100.00
5413;BME280;2729;50.056;8.678;2022-12-10T10:10:40;99532.81;;;3.63;100.00
5413;BME280;2729;50.056;8.678;2022-12-10T10:15:35;99535.31;;;3.69;100.00
5413;BME280;2729;50.056;8.678;2022-12-10T10:18:08;99534.19;;;3.99;100.00
5413;BME280;2729;50.056;8.678;2022-12-10T10:20:36;99537.53;;;4.07;100.00
5413;BME280;2729;50.056;8.678;2022-12-10T10:23:02;99532.25;;;4.16;100.00
5413;BME280;2729;50.056;8.678;2022-12-10T10:25:28;99543.69;;;3.96;100.00
5413;BME280;2729;50.056;8.678;2022-12-10T10:27:55;99542.78;;;3.98;100.00
5413;BME280;2729;50.056;8.678;2022-12-10T10:30:22;99535.13;;;3.91;100.00
5413;BME280;2729;50.056;8.678;2022-12-10T10:32:54;99538.75;;;3.70;100.00
5413;BME280;2729;50.056;8.678;2022-12-10T10:35:25;99535.34;;;3.66;100.00
5413;BME280;2729;50.056;8.678;2022-12-10T10:37:56;99531.75;;;3.82;100.00
5413;BME280;2729;50.056;8.678;2022-12-10T10:40:27;99533.28;;;4.02;100.00
5413;BME280;2729;50.056;8.678;2022-12-10T10:42:55;99533.13;;;4.17;100.00
5413;BME280;2729;50.056;8.678;2022-12-10T10:45:37;99532.47;;;3.98;100.00
5413;BME280;2729;50.056;8.678;2022-12-10T10:48:09;99523.53;;;4.27;100.00
5413;BME280;2729;50.056;8.678;2022-12-10T10:50:42;99533.28;;;4.03;100.00
5413;BME280;2729;50.056;8.678;2022-12-10T10:56:07;99528.91;;;4.08;100.00
5413;BME280;2729;50.056;8.678;2022-12-10T10:58:35;99522.03;;;4.09;100.00
5413;BME280;2729;50.056;8.678;2022-12-10T11:01:05;99524.44;;;4.24;100.00
5413;BME280;2729;50.056;8.678;2022-12-10T11:03:34;99528.84;;;4.16;100.00
5413;BME280;2729;50.056;8.678;2022-12-10T11:06:06;99519.03;;;4.44;100.00
5413;BME280;2729;50.056;8.678;2022-12-10T11:08:34;99530.59;;;4.12;100.00
5413;BME280;2729;50.056;8.678;2022-12-10T11:11:05;99530.72;;;4.00;100.00
5413;BME280;2729;50.056;8.678;2022-12-10T11:13:34;99529.47;;;4.35;100.00
5413;BME280;2729;50.056;8.678;2022-12-10T11:18:43;99523.41;;;4.37;100.00
5413;BME280;2729;50.056;8.678;2022-12-10T11:21:19;99525.97;;;4.39;100.00
5413;BME280;2729;50.056;8.678;2022-12-10T11:23:51;99530.50;;;4.22;100.00
5413;BME280;2729;50.056;8.678;2022-12-10T11:26:42;99533.81;;;4.31;100.00
5413;BME280;2729;50.056;8.678;2022-12-10T11:29:36;99523.50;;;4.31;100.00
5413;BME280;2729;50.056;8.678;2022-12-10T11:32:21;99530.00;;;4.61;100.00
5413;BME280;2729;50.056;8.678;2022-12-10T11:35:12;99530.78;;;4.68;100.00
5413;BME280;2729;50.056;8.678;2022-12-10T11:37:59;99526.81;;;4.41;100.00
5413;BME280;2729;50.056;8.678;2022-12-10T11:40:36;99526.59;;;4.58;100.00
5413;BME280;2729;50.056;8.678;2022-12-10T11:49:09;99530.75;;;3.97;100.00
5413;BME280;2729;50.056;8.678;2022-12-10T11:52:24;99529.97;;;3.89;100.00
5413;BME280;2729;50.056;8.678;2022-12-10T11:55:13;99537.56;;;4.04;100.00
5413;BME280;2729;50.056;8.678;2022-12-10T12:00:22;99537.69;;;3.94;100.00
5413;BME280;2729;50.056;8.678;2022-12-10T12:08:58;99536.88;;;3.88;100.00
5413;BME280;2729;50.056;8.678;2022-12-10T12:14:48;99545.28;;;4.06;100.00
5413;BME280;2729;50.056;8.678;2022-12-10T12:17:24;99543.53;;;4.09;100.00
5413;BME280;2729;50.056;8.678;2022-12-10T12:19:57;99536.41;;;4.31;100.00
5413;BME280;2729;50.056;8.678;2022-12-10T12:22:29;99537.13;;;4.42;100.00
5413;BME280;2729;50.056;8.678;2022-12-10T12:25:04;99537.97;;;4.44;100.00
5413;BME280;2729;50.056;8.678;2022-12-10T12:27:45;99544.56;;;4.68;100.00
5413;BME280;2729;50.056;8.678;2022-12-10T12:30:17;99540.94;;;4.81;100.00
5413;BME280;2729;50.056;8.678;2022-12-10T12:35:55;99540.06;;;4.82;100.00
5413;BME280;2729;50.056;8.678;2022-12-10T12:40:56;99543.47;;;4.84;100.00
5413;BME280;2729;50.056;8.678;2022-12-10T12:46:01;99546.31;;;4.66;100.00
5413;BME280;2729;50.056;8.678;2022-12-10T12:48:34;99547.50;;;4.39;100.00
5413;BME280;2729;50.056;8.678;2022-12-10T12:51:19;99547.44;;;4.44;100.00
5413;BME280;2729;50.056;8.678;2022-12-10T12:53:47;99553.47;;;4.44;100.00
5413;BME280;2729;50.056;8.678;2022-12-10T13:02:06;99564.34;;;4.69;100.00
5413;BME280;2729;50.056;8.678;2022-12-10T13:04:33;99565.16;;;4.74;100.00
5413;BME280;2729;50.056;8.678;2022-12-10T13:12:45;99553.47;;;5.09;100.00
5413;BME280;2729;50.056;8.678;2022-12-10T13:15:37;99559.88;;;5.43;100.00
5413;BME280;2729;50.056;8.678;2022-12-10T13:33:49;99572.25;;;4.59;100.00
5413;BME280;2729;50.056;8.678;2022-12-10T13:39:31;99580.06;;;4.54;100.00
5413;BME280;2729;50.056;8.678;2022-12-10T13:47:27;99584.81;;;4.88;100.00
5413;BME280;2729;50.056;8.678;2022-12-10T13:49:59;99588.13;;;4.97;100.00
5413;BME280;2729;50.056;8.678;2022-12-10T13:55:36;99596.84;;;4.89;100.00
5413;BME280;2729;50.056;8.678;2022-12-10T13:58:19;99597.53;;;5.03;100.00
5413;BME280;2729;50.056;8.678;2022-12-10T14:00:57;99597.03;;;4.73;100.00
5413;BME280;2729;50.056;8.678;2022-12-10T14:03:33;99612.06;;;4.41;100.00
5413;BME280;2729;50.056;8.678;2022-12-10T14:06:18;99610.34;;;4.41;100.00
5413;BME280;2729;50.056;8.678;2022-12-10T14:09:14;99621.50;;;4.43;100.00
5413;BME280;2729;50.056;8.678;2022-12-10T14:12:06;99616.88;;;4.71;100.00
5413;BME280;2729;50.056;8.678;2022-12-10T14:14:40;99621.44;;;4.51;100.00
5413;BME280;2729;50.056;8.678;2022-12-10T14:17:14;99629.06;;;4.60;100.00
5413;BME280;2729;50.056;8.678;2022-12-10T14:19:49;99628.94;;;4.71;100.00
5413;BME280;2729;50.056;8.678;2022-12-10T14:22:18;99633.50;;;4.49;100.00
5413;BME280;2729;50.056;8.678;2022-12-10T14:24:47;99630.59;;;4.76;100.00
5413;BME280;2729;50.056;8.678;2022-12-10T14:27:19;99637.69;;;4.59;100.00
5413;BME280;2729;50.056;8.678;2022-12-10T14:29:47;99636.16;;;4.43;100.00
5413;BME280;2729;50.056;8.678;2022-12-10T14:32:15;99643.97;;;4.37;100.00
5413;BME280;2729;50.056;8.678;2022-12-10T14:34:43;99640.28;;;4.59;100.00
5413;BME280;2729;50.056;8.678;2022-12-10T14:37:13;99645.53;;;4.53;100.00
5413;BME280;2729;50.056;8.678;2022-12-10T14:39:40;99650.78;;;4.44;100.00
5413;BME280;2729;50.056;8.678;2022-12-10T14:42:06;99653.53;;;4.26;100.00
5413;BME280;2729;50.056;8.678;2022-12-10T14:44:36;99659.31;;;4.52;100.00
5413;BME280;2729;50.056;8.678;2022-12-10T14:47:05;99661.38;;;4.16;100.00
5413;BME280;2729;50.056;8.678;2022-12-10T14:49:32;99663.88;;;4.27;100.00
5413;BME280;2729;50.056;8.678;2022-12-10T14:52:10;99671.63;;;4.24;100.00
5413;BME280;2729;50.056;8.678;2022-12-10T14:54:36;99674.25;;;4.19;100.00
5413;BME280;2729;50.056;8.678;2022-12-10T14:57:05;99677.84;;;4.02;100.00
5413;BME280;2729;50.056;8.678;2022-12-10T15:02:12;99672.75;;;3.94;100.00
5413;BME280;2729;50.056;8.678;2022-12-10T15:04:43;99682.22;;;3.95;100.00
5413;BME280;2729;50.056;8.678;2022-12-10T15:07:14;99681.44;;;3.82;100.00
5413;BME280;2729;50.056;8.678;2022-12-10T15:09:41;99682.44;;;3.66;100.00
5413;BME280;2729;50.056;8.678;2022-12-10T15:12:27;99687.53;;;3.72;100.00
5413;BME280;2729;50.056;8.678;2022-12-10T15:14:56;99687.63;;;3.59;100.00